sensor_id;sensor_type;location;lat;lon;timestamp;temperature;humidity
78793;SHT31;68134;51.984;5.652;2023-08-21T00:00:47;23.1;61.1
78793;SHT31;68134;51.984;5.652;2023-08-21T00:03:16;23.0;61.3
78793;SHT31;68134;51.984;5.652;2023-08-21T00:05:47;23.0;61.5
78793;SHT31;68134;51.984;5.652;2023-08-21T00:08:15;23.0;61.7
78793;SHT31;68134;51.984;5.652;2023-08-21T00:10:44;22.9;61.8
78793;SHT31;68134;51.984;5.652;2023-08-21T00:13:13;22.9;62.1
78793;SHT31;68134;51.984;5.652;2023-08-21T00:15:42;22.8;62.3
78793;SHT31;68134;51.984;5.652;2023-08-21T00:18:10;22.8;62.5
78793;SHT31;68134;51.984;5.652;2023-08-21T00:20:39;22.8;62.7
78793;SHT31;68134;51.984;5.652;2023-08-21T00:23:08;22.7;62.8
78793;SHT31;68134;51.984;5.652;2023-08-21T00:25:37;22.7;63.0
78793;SHT31;68134;51.984;5.652;2023-08-21T00:28:06;22.6;63.2
78793;SHT31;68134;51.984;5.652;2023-08-21T00:30:35;22.6;63.2
78793;SHT31;68134;51.984;5.652;2023-08-21T00:33:04;22.6;63.4
78793;SHT31;68134;51.984;5.652;2023-08-21T00:35:32;22.6;63.6
78793;SHT31;68134;51.984;5.652;2023-08-21T00:38:01;22.5;63.9
78793;SHT31;68134;51.984;5.652;2023-08-21T00:40:30;22.5;64.0
78793;SHT31;68134;51.984;5.652;2023-08-21T00:42:59;22.5;64.3
78793;SHT31;68134;51.984;5.652;2023-08-21T00:45:30;22.5;64.2
78793;SHT31;68134;51.984;5.652;2023-08-21T00:47:59;22.4;64.0
78793;SHT31;68134;51.984;5.652;2023-08-21T00:50:28;22.4;63.7
78793;SHT31;68134;51.984;5.652;2023-08-21T00:52:57;22.3;63.6
78793;SHT31;68134;51.984;5.652;2023-08-21T00:55:26;22.3;63.7
78793;SHT31;68134;51.984;5.652;2023-08-21T00:57:55;22.2;63.4
78793;SHT31;68134;51.984;5.652;2023-08-21T01:00:25;22.2;63.6
78793;SHT31;68134;51.984;5.652;2023-08-21T01:02:55;22.1;63.7
78793;SHT31;68134;51.984;5.652;2023-08-21T01:05:24;22.0;63.8
78793;SHT31;68134;51.984;5.652;2023-08-21T01:07:59;22.0;64.1
78793;SHT31;68134;51.984;5.652;2023-08-21T01:10:39;21.9;64.2
78793;SHT31;68134;51.984;5.652;2023-08-21T01:13:21;21.9;64.3
78793;SHT31;68134;51.984;5.652;2023-08-21T01:15:51;21.8;64.3
78793;SHT31;68134;51.984;5.652;2023-08-21T01:18:22;21.8;64.6
78793;SHT31;68134;51.984;5.652;2023-08-21T01:20:51;21.7;64.6
78793;SHT31;68134;51.984;5.652;2023-08-21T01:23:30;21.7;64.5
78793;SHT31;68134;51.984;5.652;2023-08-21T01:25:59;21.6;64.5
78793;SHT31;68134;51.984;5.652;2023-08-21T01:28:29;21.6;64.7
78793;SHT31;68134;51.984;5.652;2023-08-21T01:31:02;21.6;64.8
78793;SHT31;68134;51.984;5.652;2023-08-21T01:33:36;21.5;64.9
78793;SHT31;68134;51.984;5.652;2023-08-21T01:36:08;21.5;65.3
78793;SHT31;68134;51.984;5.652;2023-08-21T01:38:40;21.4;65.4
78793;SHT31;68134;51.984;5.652;2023-08-21T01:41:09;21.4;65.8
78793;SHT31;68134;51.984;5.652;2023-08-21T01:43:38;21.3;65.9
78793;SHT31;68134;51.984;5.652;2023-08-21T01:46:07;21.3;66.1
78793;SHT31;68134;51.984;5.652;2023-08-21T01:48:35;21.2;66.2
78793;SHT31;68134;51.984;5.652;2023-08-21T01:51:04;21.2;66.5
78793;SHT31;68134;51.984;5.652;2023-08-21T01:53:33;21.2;66.8
78793;SHT31;68134;51.984;5.652;2023-08-21T01:56:01;21.2;67.0
78793;SHT31;68134;51.984;5.652;2023-08-21T01:58:30;21.2;67.2
78793;SHT31;68134;51.984;5.652;2023-08-21T02:00:59;21.2;67.3
78793;SHT31;68134;51.984;5.652;2023-08-21T02:03:27;21.1;67.1
78793;SHT31;68134;51.984;5.652;2023-08-21T02:05:57;21.1;67.0
78793;SHT31;68134;51.984;5.652;2023-08-21T02:08:31;21.1;67.0
78793;SHT31;68134;51.984;5.652;2023-08-21T02:11:00;21.1;66.9
78793;SHT31;68134;51.984;5.652;2023-08-21T02:13:29;21.1;67.0
78793;SHT31;68134;51.984;5.652;2023-08-21T02:15:59;21.0;67.2
78793;SHT31;68134;51.984;5.652;2023-08-21T02:18:28;21.0;67.6
78793;SHT31;68134;51.984;5.652;2023-08-21T02:20:56;21.0;68.1
78793;SHT31;68134;51.984;5.652;2023-08-21T02:23:25;21.0;68.4
78793;SHT31;68134;51.984;5.652;2023-08-21T02:25:54;21.0;68.7
78793;SHT31;68134;51.984;5.652;2023-08-21T02:28:23;21.0;68.9
78793;SHT31;68134;51.984;5.652;2023-08-21T02:30:51;21.0;68.7
78793;SHT31;68134;51.984;5.652;2023-08-21T02:33:20;21.0;68.3
78793;SHT31;68134;51.984;5.652;2023-08-21T02:35:48;21.0;68.2
78793;SHT31;68134;51.984;5.652;2023-08-21T02:38:17;21.0;68.0
78793;SHT31;68134;51.984;5.652;2023-08-21T02:40:46;21.0;68.0
78793;SHT31;68134;51.984;5.652;2023-08-21T02:43:15;21.0;68.0
78793;SHT31;68134;51.984;5.652;2023-08-21T02:45:44;21.1;68.1
78793;SHT31;68134;51.984;5.652;2023-08-21T02:48:13;21.1;68.1
78793;SHT31;68134;51.984;5.652;2023-08-21T02:50:42;21.1;68.2
78793;SHT31;68134;51.984;5.652;2023-08-21T02:53:10;21.1;68.1
78793;SHT31;68134;51.984;5.652;2023-08-21T02:55:39;21.1;68.2
78793;SHT31;68134;51.984;5.652;2023-08-21T02:58:07;21.1;68.3
78793;SHT31;68134;51.984;5.652;2023-08-21T03:00:39;21.1;68.3
78793;SHT31;68134;51.984;5.652;2023-08-21T03:03:07;21.0;68.5
78793;SHT31;68134;51.984;5.652;2023-08-21T03:05:37;21.0;68.4
78793;SHT31;68134;51.984;5.652;2023-08-21T03:08:06;21.0;68.4
78793;SHT31;68134;51.984;5.652;2023-08-21T03:10:34;21.1;68.7
78793;SHT31;68134;51.984;5.652;2023-08-21T03:13:03;21.1;68.8
78793;SHT31;68134;51.984;5.652;2023-08-21T03:15:32;21.1;69.0
78793;SHT31;68134;51.984;5.652;2023-08-21T03:18:01;21.1;69.0
78793;SHT31;68134;51.984;5.652;2023-08-21T03:20:29;21.1;69.0
78793;SHT31;68134;51.984;5.652;2023-08-21T03:22:58;21.1;69.0
78793;SHT31;68134;51.984;5.652;2023-08-21T03:25:27;21.1;68.9
78793;SHT31;68134;51.984;5.652;2023-08-21T03:27:56;21.1;69.2
78793;SHT31;68134;51.984;5.652;2023-08-21T03:30:24;21.1;69.2
78793;SHT31;68134;51.984;5.652;2023-08-21T03:32:53;21.1;68.7
78793;SHT31;68134;51.984;5.652;2023-08-21T03:35:21;21.1;68.6
78793;SHT31;68134;51.984;5.652;2023-08-21T03:37:51;21.1;68.8
78793;SHT31;68134;51.984;5.652;2023-08-21T03:40:20;21.1;68.7
78793;SHT31;68134;51.984;5.652;2023-08-21T03:42:48;21.1;68.6
78793;SHT31;68134;51.984;5.652;2023-08-21T03:45:17;21.1;68.4
78793;SHT31;68134;51.984;5.652;2023-08-21T03:47:46;21.0;68.4
78793;SHT31;68134;51.984;5.652;2023-08-21T03:50:14;21.0;68.4
78793;SHT31;68134;51.984;5.652;2023-08-21T03:52:43;21.0;68.5
78793;SHT31;68134;51.984;5.652;2023-08-21T03:55:12;20.9;68.4
78793;SHT31;68134;51.984;5.652;2023-08-21T03:57:40;20.9;68.5
78793;SHT31;68134;51.984;5.652;2023-08-21T04:00:09;20.8;68.7
78793;SHT31;68134;51.984;5.652;2023-08-21T04:02:38;20.8;68.8
78793;SHT31;68134;51.984;5.652;2023-08-21T04:05:07;20.8;69.0
78793;SHT31;68134;51.984;5.652;2023-08-21T04:07:37;20.8;69.4
78793;SHT31;68134;51.984;5.652;2023-08-21T04:10:06;20.7;69.8
78793;SHT31;68134;51.984;5.652;2023-08-21T04:12:35;20.7;70.0
78793;SHT31;68134;51.984;5.652;2023-08-21T04:15:04;20.7;70.1
78793;SHT31;68134;51.984;5.652;2023-08-21T04:17:33;20.8;70.3
78793;SHT31;68134;51.984;5.652;2023-08-21T04:20:02;20.8;70.3
78793;SHT31;68134;51.984;5.652;2023-08-21T04:22:30;20.8;70.4
78793;SHT31;68134;51.984;5.652;2023-08-21T04:25:02;20.8;70.0
78793;SHT31;68134;51.984;5.652;2023-08-21T04:27:30;20.8;69.6
78793;SHT31;68134;51.984;5.652;2023-08-21T04:29:59;20.8;69.3
78793;SHT31;68134;51.984;5.652;2023-08-21T04:32:28;20.8;69.0
78793;SHT31;68134;51.984;5.652;2023-08-21T04:34:57;20.8;68.8
78793;SHT31;68134;51.984;5.652;2023-08-21T04:37:27;20.7;68.8
78793;SHT31;68134;51.984;5.652;2023-08-21T04:39:56;20.7;68.6
78793;SHT31;68134;51.984;5.652;2023-08-21T04:42:24;20.7;68.7
78793;SHT31;68134;51.984;5.652;2023-08-21T04:44:53;20.7;68.9
78793;SHT31;68134;51.984;5.652;2023-08-21T04:47:23;20.7;69.3
78793;SHT31;68134;51.984;5.652;2023-08-21T04:49:53;20.7;69.9
78793;SHT31;68134;51.984;5.652;2023-08-21T04:52:23;20.6;70.4
78793;SHT31;68134;51.984;5.652;2023-08-21T04:54:52;20.6;70.6
78793;SHT31;68134;51.984;5.652;2023-08-21T04:57:21;20.6;70.8
78793;SHT31;68134;51.984;5.652;2023-08-21T04:59:50;20.6;71.0
78793;SHT31;68134;51.984;5.652;2023-08-21T05:02:19;20.7;70.9
78793;SHT31;68134;51.984;5.652;2023-08-21T05:04:47;20.7;70.9
78793;SHT31;68134;51.984;5.652;2023-08-21T05:07:16;20.7;70.8
78793;SHT31;68134;51.984;5.652;2023-08-21T05:09:44;20.7;70.9
78793;SHT31;68134;51.984;5.652;2023-08-21T05:12:13;20.7;70.8
78793;SHT31;68134;51.984;5.652;2023-08-21T05:14:41;20.7;70.8
78793;SHT31;68134;51.984;5.652;2023-08-21T05:17:10;20.7;70.8
78793;SHT31;68134;51.984;5.652;2023-08-21T05:19:41;20.7;70.9
78793;SHT31;68134;51.984;5.652;2023-08-21T05:22:09;20.7;71.0
78793;SHT31;68134;51.984;5.652;2023-08-21T05:24:38;20.7;71.4
78793;SHT31;68134;51.984;5.652;2023-08-21T05:27:06;20.7;71.7
78793;SHT31;68134;51.984;5.652;2023-08-21T05:29:35;20.7;71.8
78793;SHT31;68134;51.984;5.652;2023-08-21T05:32:04;20.7;71.6
78793;SHT31;68134;51.984;5.652;2023-08-21T05:34:33;20.7;71.6
78793;SHT31;68134;51.984;5.652;2023-08-21T05:37:02;20.7;71.3
78793;SHT31;68134;51.984;5.652;2023-08-21T05:39:31;20.7;72.0
78793;SHT31;68134;51.984;5.652;2023-08-21T05:42:00;20.7;72.3
78793;SHT31;68134;51.984;5.652;2023-08-21T05:44:29;20.8;71.3
78793;SHT31;68134;51.984;5.652;2023-08-21T05:46:57;20.8;71.6
78793;SHT31;68134;51.984;5.652;2023-08-21T05:49:26;20.8;71.2
78793;SHT31;68134;51.984;5.652;2023-08-21T05:51:56;20.8;71.4
78793;SHT31;68134;51.984;5.652;2023-08-21T05:54:25;20.9;71.2
78793;SHT31;68134;51.984;5.652;2023-08-21T05:56:53;20.9;70.9
78793;SHT31;68134;51.984;5.652;2023-08-21T05:59:31;20.9;71.4
78793;SHT31;68134;51.984;5.652;2023-08-21T06:02:00;21.0;70.8
78793;SHT31;68134;51.984;5.652;2023-08-21T06:04:29;21.0;70.3
78793;SHT31;68134;51.984;5.652;2023-08-21T06:06:57;21.1;70.5
78793;SHT31;68134;51.984;5.652;2023-08-21T06:09:26;21.1;71.0
78793;SHT31;68134;51.984;5.652;2023-08-21T06:11:56;21.1;71.1
78793;SHT31;68134;51.984;5.652;2023-08-21T06:14:25;21.2;70.9
78793;SHT31;68134;51.984;5.652;2023-08-21T06:16:55;21.2;70.8
78793;SHT31;68134;51.984;5.652;2023-08-21T06:19:23;21.2;70.5
78793;SHT31;68134;51.984;5.652;2023-08-21T06:21:52;21.3;70.7
78793;SHT31;68134;51.984;5.652;2023-08-21T06:24:23;21.3;71.3
78793;SHT31;68134;51.984;5.652;2023-08-21T06:26:54;21.3;68.7
78793;SHT31;68134;51.984;5.652;2023-08-21T06:29:23;21.4;69.6
78793;SHT31;68134;51.984;5.652;2023-08-21T06:31:52;21.5;69.0
78793;SHT31;68134;51.984;5.652;2023-08-21T06:34:20;21.5;69.4
78793;SHT31;68134;51.984;5.652;2023-08-21T06:36:49;21.6;69.2
78793;SHT31;68134;51.984;5.652;2023-08-21T06:39:17;21.7;69.6
78793;SHT31;68134;51.984;5.652;2023-08-21T06:41:46;21.7;69.0
78793;SHT31;68134;51.984;5.652;2023-08-21T06:44:15;21.8;69.5
78793;SHT31;68134;51.984;5.652;2023-08-21T06:46:46;21.8;68.8
78793;SHT31;68134;51.984;5.652;2023-08-21T06:49:14;21.9;68.2
78793;SHT31;68134;51.984;5.652;2023-08-21T06:51:43;22.0;68.7
78793;SHT31;68134;51.984;5.652;2023-08-21T06:54:12;22.0;69.9
78793;SHT31;68134;51.984;5.652;2023-08-21T06:56:40;22.1;68.6
78793;SHT31;68134;51.984;5.652;2023-08-21T06:59:09;22.2;67.8
78793;SHT31;68134;51.984;5.652;2023-08-21T07:01:38;22.3;66.9
78793;SHT31;68134;51.984;5.652;2023-08-21T07:04:07;22.4;65.4
78793;SHT31;68134;51.984;5.652;2023-08-21T07:06:35;22.5;66.3
78793;SHT31;68134;51.984;5.652;2023-08-21T07:09:04;22.6;66.0
78793;SHT31;68134;51.984;5.652;2023-08-21T07:11:32;22.7;65.0
78793;SHT31;68134;51.984;5.652;2023-08-21T07:14:01;22.8;62.6
78793;SHT31;68134;51.984;5.652;2023-08-21T07:16:30;22.9;63.2
78793;SHT31;68134;51.984;5.652;2023-08-21T07:18:58;23.0;60.2
78793;SHT31;68134;51.984;5.652;2023-08-21T07:21:27;23.1;62.0
78793;SHT31;68134;51.984;5.652;2023-08-21T07:23:55;23.1;62.2
78793;SHT31;68134;51.984;5.652;2023-08-21T07:26:24;23.2;63.9
78793;SHT31;68134;51.984;5.652;2023-08-21T07:28:53;23.2;63.2
78793;SHT31;68134;51.984;5.652;2023-08-21T07:31:22;23.2;61.1
78793;SHT31;68134;51.984;5.652;2023-08-21T07:33:51;23.3;63.4
78793;SHT31;68134;51.984;5.652;2023-08-21T07:36:21;23.3;59.0
78793;SHT31;68134;51.984;5.652;2023-08-21T07:38:50;23.4;63.5
78793;SHT31;68134;51.984;5.652;2023-08-21T07:41:18;23.5;61.2
78793;SHT31;68134;51.984;5.652;2023-08-21T07:43:47;23.6;58.9
78793;SHT31;68134;51.984;5.652;2023-08-21T07:46:16;23.9;59.0
78793;SHT31;68134;51.984;5.652;2023-08-21T07:48:45;24.3;58.9
78793;SHT31;68134;51.984;5.652;2023-08-21T07:51:14;24.8;57.5
78793;SHT31;68134;51.984;5.652;2023-08-21T07:53:43;25.3;54.7
78793;SHT31;68134;51.984;5.652;2023-08-21T07:56:11;25.9;55.0
78793;SHT31;68134;51.984;5.652;2023-08-21T07:58:40;26.2;53.6
78793;SHT31;68134;51.984;5.652;2023-08-21T08:01:09;26.3;50.7
78793;SHT31;68134;51.984;5.652;2023-08-21T08:03:37;26.5;51.1
78793;SHT31;68134;51.984;5.652;2023-08-21T08:06:06;26.6;49.8
78793;SHT31;68134;51.984;5.652;2023-08-21T08:08:34;26.8;50.4
78793;SHT31;68134;51.984;5.652;2023-08-21T08:11:04;27.0;49.2
78793;SHT31;68134;51.984;5.652;2023-08-21T08:13:35;27.3;48.8
78793;SHT31;68134;51.984;5.652;2023-08-21T08:16:03;27.5;49.0
78793;SHT31;68134;51.984;5.652;2023-08-21T08:18:33;27.8;48.1
78793;SHT31;68134;51.984;5.652;2023-08-21T08:21:01;28.0;47.0
78793;SHT31;68134;51.984;5.652;2023-08-21T08:23:31;28.2;47.5
78793;SHT31;68134;51.984;5.652;2023-08-21T08:25:59;28.5;48.7
78793;SHT31;68134;51.984;5.652;2023-08-21T08:28:28;28.9;44.5
78793;SHT31;68134;51.984;5.652;2023-08-21T08:30:59;29.2;45.8
78793;SHT31;68134;51.984;5.652;2023-08-21T08:33:27;29.6;42.9
78793;SHT31;68134;51.984;5.652;2023-08-21T08:35:56;30.1;41.1
78793;SHT31;68134;51.984;5.652;2023-08-21T08:38:26;30.6;39.0
78793;SHT31;68134;51.984;5.652;2023-08-21T08:40:56;30.9;37.2
78793;SHT31;68134;51.984;5.652;2023-08-21T08:43:27;31.2;38.3
78793;SHT31;68134;51.984;5.652;2023-08-21T08:45:58;31.5;37.9
78793;SHT31;68134;51.984;5.652;2023-08-21T08:48:27;31.7;39.2
78793;SHT31;68134;51.984;5.652;2023-08-21T08:50:58;31.8;38.8
78793;SHT31;68134;51.984;5.652;2023-08-21T08:53:27;31.9;38.1
78793;SHT31;68134;51.984;5.652;2023-08-21T08:55:57;32.0;39.4
78793;SHT31;68134;51.984;5.652;2023-08-21T08:58:25;32.1;38.8
78793;SHT31;68134;51.984;5.652;2023-08-21T09:00:54;32.3;38.8
78793;SHT31;68134;51.984;5.652;2023-08-21T09:03:23;32.5;37.6
78793;SHT31;68134;51.984;5.652;2023-08-21T09:05:52;32.7;38.3
78793;SHT31;68134;51.984;5.652;2023-08-21T09:08:21;32.7;37.6
78793;SHT31;68134;51.984;5.652;2023-08-21T09:10:50;32.8;37.6
78793;SHT31;68134;51.984;5.652;2023-08-21T09:13:19;32.9;37.9
78793;SHT31;68134;51.984;5.652;2023-08-21T09:15:53;32.9;38.1
78793;SHT31;68134;51.984;5.652;2023-08-21T09:18:22;33.0;36.0
78793;SHT31;68134;51.984;5.652;2023-08-21T09:20:51;32.9;36.2
78793;SHT31;68134;51.984;5.652;2023-08-21T09:23:22;33.0;36.0
78793;SHT31;68134;51.984;5.652;2023-08-21T09:25:50;33.1;38.1
78793;SHT31;68134;51.984;5.652;2023-08-21T09:28:20;33.3;37.5
78793;SHT31;68134;51.984;5.652;2023-08-21T09:30:51;33.6;37.6
78793;SHT31;68134;51.984;5.652;2023-08-21T09:33:21;33.9;36.1
78793;SHT31;68134;51.984;5.652;2023-08-21T09:35:52;34.2;34.5
78793;SHT31;68134;51.984;5.652;2023-08-21T09:38:21;34.4;34.4
78793;SHT31;68134;51.984;5.652;2023-08-21T09:40:54;34.6;34.6
78793;SHT31;68134;51.984;5.652;2023-08-21T09:43:24;34.8;32.7
78793;SHT31;68134;51.984;5.652;2023-08-21T09:45:55;35.0;32.8
78793;SHT31;68134;51.984;5.652;2023-08-21T09:48:25;35.2;33.0
78793;SHT31;68134;51.984;5.652;2023-08-21T09:50:57;35.4;33.0
78793;SHT31;68134;51.984;5.652;2023-08-21T09:53:32;35.6;32.8
78793;SHT31;68134;51.984;5.652;2023-08-21T09:56:01;35.8;31.6
78793;SHT31;68134;51.984;5.652;2023-08-21T09:58:31;35.9;32.6
78793;SHT31;68134;51.984;5.652;2023-08-21T10:01:06;36.0;30.4
78793;SHT31;68134;51.984;5.652;2023-08-21T10:03:39;36.2;30.6
78793;SHT31;68134;51.984;5.652;2023-08-21T10:06:09;36.4;30.7
78793;SHT31;68134;51.984;5.652;2023-08-21T10:08:39;36.5;30.7
78793;SHT31;68134;51.984;5.652;2023-08-21T10:11:09;36.7;30.3
78793;SHT31;68134;51.984;5.652;2023-08-21T10:13:39;36.8;30.1
78793;SHT31;68134;51.984;5.652;2023-08-21T10:16:08;36.9;30.5
78793;SHT31;68134;51.984;5.652;2023-08-21T10:18:38;37.1;30.8
78793;SHT31;68134;51.984;5.652;2023-08-21T10:21:13;37.2;30.3
78793;SHT31;68134;51.984;5.652;2023-08-21T10:23:46;37.2;30.5
78793;SHT31;68134;51.984;5.652;2023-08-21T10:26:16;37.2;29.8
78793;SHT31;68134;51.984;5.652;2023-08-21T10:28:54;37.2;30.7
78793;SHT31;68134;51.984;5.652;2023-08-21T10:31:30;37.2;30.6
78793;SHT31;68134;51.984;5.652;2023-08-21T10:34:02;37.3;30.2
78793;SHT31;68134;51.984;5.652;2023-08-21T10:37:09;37.5;29.2
78793;SHT31;68134;51.984;5.652;2023-08-21T10:39:52;37.7;28.8
78793;SHT31;68134;51.984;5.652;2023-08-21T10:42:13;37.9;27.3
78793;SHT31;68134;51.984;5.652;2023-08-21T10:44:50;38.0;27.5
78793;SHT31;68134;51.984;5.652;2023-08-21T10:47:32;38.1;27.7
78793;SHT31;68134;51.984;5.652;2023-08-21T10:50:04;38.3;27.5
78793;SHT31;68134;51.984;5.652;2023-08-21T10:52:35;38.4;27.8
78793;SHT31;68134;51.984;5.652;2023-08-21T10:55:05;38.5;26.4
78793;SHT31;68134;51.984;5.652;2023-08-21T10:57:36;38.6;27.8
78793;SHT31;68134;51.984;5.652;2023-08-21T11:00:07;38.7;27.9
78793;SHT31;68134;51.984;5.652;2023-08-21T11:02:38;38.8;27.0
78793;SHT31;68134;51.984;5.652;2023-08-21T11:05:08;38.9;26.3
78793;SHT31;68134;51.984;5.652;2023-08-21T11:07:41;39.0;27.6
78793;SHT31;68134;51.984;5.652;2023-08-21T11:10:12;39.0;27.4
78793;SHT31;68134;51.984;5.652;2023-08-21T11:12:51;39.1;26.3
78793;SHT31;68134;51.984;5.652;2023-08-21T11:15:22;39.2;26.2
78793;SHT31;68134;51.984;5.652;2023-08-21T11:17:58;39.3;25.9
78793;SHT31;68134;51.984;5.652;2023-08-21T11:20:31;39.3;25.0
78793;SHT31;68134;51.984;5.652;2023-08-21T11:23:02;39.4;24.6
78793;SHT31;68134;51.984;5.652;2023-08-21T11:25:33;39.4;23.5
78793;SHT31;68134;51.984;5.652;2023-08-21T11:28:02;39.4;26.1
78793;SHT31;68134;51.984;5.652;2023-08-21T11:30:32;39.5;25.3
78793;SHT31;68134;51.984;5.652;2023-08-21T11:33:07;39.5;26.1
78793;SHT31;68134;51.984;5.652;2023-08-21T11:35:36;39.5;24.6
78793;SHT31;68134;51.984;5.652;2023-08-21T11:38:05;39.6;25.7
78793;SHT31;68134;51.984;5.652;2023-08-21T11:40:36;39.7;25.3
78793;SHT31;68134;51.984;5.652;2023-08-21T11:43:05;39.8;24.6
78793;SHT31;68134;51.984;5.652;2023-08-21T11:45:35;39.8;25.0
78793;SHT31;68134;51.984;5.652;2023-08-21T11:48:04;39.9;24.4
78793;SHT31;68134;51.984;5.652;2023-08-21T11:50:35;39.9;26.0
78793;SHT31;68134;51.984;5.652;2023-08-21T11:53:03;40.0;26.3
78793;SHT31;68134;51.984;5.652;2023-08-21T11:55:34;40.0;24.7
78793;SHT31;68134;51.984;5.652;2023-08-21T11:58:03;40.0;25.7
78793;SHT31;68134;51.984;5.652;2023-08-21T12:00:32;40.1;24.9
78793;SHT31;68134;51.984;5.652;2023-08-21T12:03:01;40.2;25.7
78793;SHT31;68134;51.984;5.652;2023-08-21T12:05:33;40.2;24.8
78793;SHT31;68134;51.984;5.652;2023-08-21T12:08:01;40.3;25.4
78793;SHT31;68134;51.984;5.652;2023-08-21T12:10:30;40.3;24.7
78793;SHT31;68134;51.984;5.652;2023-08-21T12:12:59;40.3;24.4
78793;SHT31;68134;51.984;5.652;2023-08-21T12:15:29;40.3;24.2
78793;SHT31;68134;51.984;5.652;2023-08-21T12:17:58;40.2;24.8
78793;SHT31;68134;51.984;5.652;2023-08-21T12:20:26;40.1;24.9
78793;SHT31;68134;51.984;5.652;2023-08-21T12:22:56;40.0;24.3
78793;SHT31;68134;51.984;5.652;2023-08-21T12:25:24;40.0;25.3
78793;SHT31;68134;51.984;5.652;2023-08-21T12:27:55;40.1;25.1
78793;SHT31;68134;51.984;5.652;2023-08-21T12:30:23;40.2;24.8
78793;SHT31;68134;51.984;5.652;2023-08-21T12:32:52;40.3;25.0
78793;SHT31;68134;51.984;5.652;2023-08-21T12:35:20;40.4;23.8
78793;SHT31;68134;51.984;5.652;2023-08-21T12:37:49;40.4;25.2
78793;SHT31;68134;51.984;5.652;2023-08-21T12:40:17;40.3;24.0
78793;SHT31;68134;51.984;5.652;2023-08-21T12:42:46;40.3;24.0
78793;SHT31;68134;51.984;5.652;2023-08-21T12:45:15;40.2;23.2
78793;SHT31;68134;51.984;5.652;2023-08-21T12:47:44;40.2;23.0
78793;SHT31;68134;51.984;5.652;2023-08-21T12:50:14;40.1;23.7
78793;SHT31;68134;51.984;5.652;2023-08-21T12:52:43;40.1;23.4
78793;SHT31;68134;51.984;5.652;2023-08-21T12:55:11;40.1;23.1
78793;SHT31;68134;51.984;5.652;2023-08-21T12:57:40;40.1;21.1
78793;SHT31;68134;51.984;5.652;2023-08-21T13:00:09;40.1;20.4
78793;SHT31;68134;51.984;5.652;2023-08-21T13:02:39;40.1;21.5
78793;SHT31;68134;51.984;5.652;2023-08-21T13:05:08;40.1;21.2
78793;SHT31;68134;51.984;5.652;2023-08-21T13:07:37;40.0;21.8
78793;SHT31;68134;51.984;5.652;2023-08-21T13:10:06;39.9;22.9
78793;SHT31;68134;51.984;5.652;2023-08-21T13:12:35;39.8;23.8
78793;SHT31;68134;51.984;5.652;2023-08-21T13:15:05;39.7;22.6
78793;SHT31;68134;51.984;5.652;2023-08-21T13:17:34;39.5;22.6
78793;SHT31;68134;51.984;5.652;2023-08-21T13:20:03;39.3;23.4
78793;SHT31;68134;51.984;5.652;2023-08-21T13:22:45;39.2;25.4
78793;SHT31;68134;51.984;5.652;2023-08-21T13:25:15;38.9;25.3
78793;SHT31;68134;51.984;5.652;2023-08-21T13:27:43;38.6;26.6
78793;SHT31;68134;51.984;5.652;2023-08-21T13:30:13;38.2;25.9
78793;SHT31;68134;51.984;5.652;2023-08-21T13:32:42;37.9;26.8
78793;SHT31;68134;51.984;5.652;2023-08-21T13:35:11;37.7;26.5
78793;SHT31;68134;51.984;5.652;2023-08-21T13:37:40;37.5;26.9
78793;SHT31;68134;51.984;5.652;2023-08-21T13:40:09;37.3;26.7
78793;SHT31;68134;51.984;5.652;2023-08-21T13:42:41;37.2;26.4
78793;SHT31;68134;51.984;5.652;2023-08-21T13:45:12;37.1;27.3
78793;SHT31;68134;51.984;5.652;2023-08-21T13:47:42;36.9;27.2
78793;SHT31;68134;51.984;5.652;2023-08-21T13:50:13;36.8;26.3
78793;SHT31;68134;51.984;5.652;2023-08-21T13:52:43;36.7;26.5
78793;SHT31;68134;51.984;5.652;2023-08-21T13:55:13;36.6;28.0
78793;SHT31;68134;51.984;5.652;2023-08-21T13:57:43;36.5;28.2
78793;SHT31;68134;51.984;5.652;2023-08-21T14:00:12;36.4;28.0
78793;SHT31;68134;51.984;5.652;2023-08-21T14:02:44;36.2;28.4
78793;SHT31;68134;51.984;5.652;2023-08-21T14:05:12;36.1;27.8
78793;SHT31;68134;51.984;5.652;2023-08-21T14:07:41;36.0;28.8
78793;SHT31;68134;51.984;5.652;2023-08-21T14:10:10;35.9;28.5
78793;SHT31;68134;51.984;5.652;2023-08-21T14:12:41;35.8;29.0
78793;SHT31;68134;51.984;5.652;2023-08-21T14:15:10;35.6;29.9
78793;SHT31;68134;51.984;5.652;2023-08-21T14:17:41;35.4;28.5
78793;SHT31;68134;51.984;5.652;2023-08-21T14:20:10;35.3;29.1
78793;SHT31;68134;51.984;5.652;2023-08-21T14:22:39;35.1;29.9
78793;SHT31;68134;51.984;5.652;2023-08-21T14:25:11;35.0;29.8
78793;SHT31;68134;51.984;5.652;2023-08-21T14:27:42;34.9;28.9
78793;SHT31;68134;51.984;5.652;2023-08-21T14:30:11;34.9;29.3
78793;SHT31;68134;51.984;5.652;2023-08-21T14:32:40;34.8;28.9
78793;SHT31;68134;51.984;5.652;2023-08-21T14:35:09;34.7;29.7
78793;SHT31;68134;51.984;5.652;2023-08-21T14:37:38;34.6;29.2
78793;SHT31;68134;51.984;5.652;2023-08-21T14:40:10;34.4;29.1
78793;SHT31;68134;51.984;5.652;2023-08-21T14:42:39;34.4;30.6
78793;SHT31;68134;51.984;5.652;2023-08-21T14:45:10;34.3;29.3
78793;SHT31;68134;51.984;5.652;2023-08-21T14:47:39;34.2;29.1
78793;SHT31;68134;51.984;5.652;2023-08-21T14:50:09;34.2;30.4
78793;SHT31;68134;51.984;5.652;2023-08-21T14:52:38;34.2;29.5
78793;SHT31;68134;51.984;5.652;2023-08-21T14:55:07;34.1;29.6
78793;SHT31;68134;51.984;5.652;2023-08-21T14:57:36;34.1;29.0
78793;SHT31;68134;51.984;5.652;2023-08-21T15:00:05;34.0;29.0
78793;SHT31;68134;51.984;5.652;2023-08-21T15:02:34;34.0;29.3
78793;SHT31;68134;51.984;5.652;2023-08-21T15:05:03;33.9;29.2
78793;SHT31;68134;51.984;5.652;2023-08-21T15:07:33;33.9;30.0
78793;SHT31;68134;51.984;5.652;2023-08-21T15:10:04;33.8;29.0
78793;SHT31;68134;51.984;5.652;2023-08-21T15:12:33;33.7;29.3
78793;SHT31;68134;51.984;5.652;2023-08-21T15:15:01;33.7;30.4
78793;SHT31;68134;51.984;5.652;2023-08-21T15:17:32;33.6;29.4
78793;SHT31;68134;51.984;5.652;2023-08-21T15:20:02;33.6;30.3
78793;SHT31;68134;51.984;5.652;2023-08-21T15:22:33;33.5;30.5
78793;SHT31;68134;51.984;5.652;2023-08-21T15:25:02;33.5;30.8
78793;SHT31;68134;51.984;5.652;2023-08-21T15:27:31;33.4;30.3
78793;SHT31;68134;51.984;5.652;2023-08-21T15:30:00;33.3;29.7
78793;SHT31;68134;51.984;5.652;2023-08-21T15:32:30;33.2;29.9
78793;SHT31;68134;51.984;5.652;2023-08-21T15:34:59;33.1;30.0
78793;SHT31;68134;51.984;5.652;2023-08-21T15:37:30;33.0;32.0
78793;SHT31;68134;51.984;5.652;2023-08-21T15:40:01;32.9;31.6
78793;SHT31;68134;51.984;5.652;2023-08-21T15:42:30;32.8;31.2
78793;SHT31;68134;51.984;5.652;2023-08-21T15:44:59;32.8;31.7
78793;SHT31;68134;51.984;5.652;2023-08-21T15:47:28;32.7;32.9
78793;SHT31;68134;51.984;5.652;2023-08-21T15:49:57;32.7;32.6
78793;SHT31;68134;51.984;5.652;2023-08-21T15:52:25;32.6;32.2
78793;SHT31;68134;51.984;5.652;2023-08-21T15:54:54;32.6;31.7
78793;SHT31;68134;51.984;5.652;2023-08-21T15:57:26;32.5;32.3
78793;SHT31;68134;51.984;5.652;2023-08-21T15:59:56;32.4;34.0
78793;SHT31;68134;51.984;5.652;2023-08-21T16:02:24;32.3;31.2
78793;SHT31;68134;51.984;5.652;2023-08-21T16:04:53;32.2;32.3
78793;SHT31;68134;51.984;5.652;2023-08-21T16:07:23;32.2;32.8
78793;SHT31;68134;51.984;5.652;2023-08-21T16:09:52;32.1;32.9
78793;SHT31;68134;51.984;5.652;2023-08-21T16:12:21;32.1;33.3
78793;SHT31;68134;51.984;5.652;2023-08-21T16:14:51;32.0;32.8
78793;SHT31;68134;51.984;5.652;2023-08-21T16:17:20;31.9;33.9